sensor_id;sensor_type;location;lat;lon;timestamp;temperature;humidity
25024;DHT22;13033;50.936;5.334;2023-12-07T00:01:15;2.80;99.90
25024;DHT22;13033;50.936;5.334;2023-12-07T00:03:40;2.80;99.90
25024;DHT22;13033;50.936;5.334;2023-12-07T00:06:06;2.90;99.90
25024;DHT22;13033;50.936;5.334;2023-12-07T00:08:32;2.90;99.90
25024;DHT22;13033;50.936;5.334;2023-12-07T00:10:57;2.80;99.90
25024;DHT22;13033;50.936;5.334;2023-12-07T00:13:23;2.80;99.90
25024;DHT22;13033;50.936;5.334;2023-12-07T00:15:49;2.70;99.90
25024;DHT22;13033;50.936;5.334;2023-12-07T00:18:14;2.80;99.90
25024;DHT22;13033;50.936;5.334;2023-12-07T00:20:40;2.90;99.90
25024;DHT22;13033;50.936;5.334;2023-12-07T00:23:06;3.10;99.90
25024;DHT22;13033;50.936;5.334;2023-12-07T00:25:31;2.80;99.90
25024;DHT22;13033;50.936;5.334;2023-12-07T00:27:57;2.90;99.90
25024;DHT22;13033;50.936;5.334;2023-12-07T00:30:23;2.90;99.90
25024;DHT22;13033;50.936;5.334;2023-12-07T00:32:48;3.00;99.90
25024;DHT22;13033;50.936;5.334;2023-12-07T00:35:15;3.10;99.90
25024;DHT22;13033;50.936;5.334;2023-12-07T00:37:41;3.30;99.90
25024;DHT22;13033;50.936;5.334;2023-12-07T00:40:07;3.10;99.90
25024;DHT22;13033;50.936;5.334;2023-12-07T00:42:33;3.00;99.90
25024;DHT22;13033;50.936;5.334;2023-12-07T00:45:00;3.10;99.90
25024;DHT22;13033;50.936;5.334;2023-12-07T00:47:26;3.10;99.90
25024;DHT22;13033;50.936;5.334;2023-12-07T00:49:51;3.30;99.90
25024;DHT22;13033;50.936;5.334;2023-12-07T00:52:17;3.30;99.90
25024;DHT22;13033;50.936;5.334;2023-12-07T00:54:43;3.30;99.90
25024;DHT22;13033;50.936;5.334;2023-12-07T00:57:09;3.20;99.90
25024;DHT22;13033;50.936;5.334;2023-12-07T00:59:35;3.30;99.90
25024;DHT22;13033;50.936;5.334;2023-12-07T01:02:08;3.40;99.90
25024;DHT22;13033;50.936;5.334;2023-12-07T01:04:33;3.40;99.90
25024;DHT22;13033;50.936;5.334;2023-12-07T01:06:59;3.50;99.90
25024;DHT22;13033;50.936;5.334;2023-12-07T01:09:25;3.40;99.90
25024;DHT22;13033;50.936;5.334;2023-12-07T01:11:51;3.40;99.90
25024;DHT22;13033;50.936;5.334;2023-12-07T01:14:18;3.60;99.90
25024;DHT22;13033;50.936;5.334;2023-12-07T01:16:44;3.60;99.90
25024;DHT22;13033;50.936;5.334;2023-12-07T01:19:10;3.60;99.90
25024;DHT22;13033;50.936;5.334;2023-12-07T01:21:40;3.40;99.90
25024;DHT22;13033;50.936;5.334;2023-12-07T01:24:06;3.30;99.90
25024;DHT22;13033;50.936;5.334;2023-12-07T01:26:32;3.30;99.90
25024;DHT22;13033;50.936;5.334;2023-12-07T01:28:58;3.30;99.90
25024;DHT22;13033;50.936;5.334;2023-12-07T01:31:24;3.50;99.90
25024;DHT22;13033;50.936;5.334;2023-12-07T01:33:49;3.30;99.90
25024;DHT22;13033;50.936;5.334;2023-12-07T01:36:15;3.40;99.90
25024;DHT22;13033;50.936;5.334;2023-12-07T01:38:41;3.40;99.90
25024;DHT22;13033;50.936;5.334;2023-12-07T01:41:09;3.30;99.90
25024;DHT22;13033;50.936;5.334;2023-12-07T01:43:35;3.20;99.90
25024;DHT22;13033;50.936;5.334;2023-12-07T01:46:00;3.30;99.90
25024;DHT22;13033;50.936;5.334;2023-12-07T01:48:28;3.20;99.90
25024;DHT22;13033;50.936;5.334;2023-12-07T01:50:56;3.20;99.90
25024;DHT22;13033;50.936;5.334;2023-12-07T01:53:23;2.90;99.90
25024;DHT22;13033;50.936;5.334;2023-12-07T01:55:49;3.00;99.90
25024;DHT22;13033;50.936;5.334;2023-12-07T01:58:17;3.20;99.90
25024;DHT22;13033;50.936;5.334;2023-12-07T02:00:43;3.00;99.90
25024;DHT22;13033;50.936;5.334;2023-12-07T02:03:10;2.90;99.90
25024;DHT22;13033;50.936;5.334;2023-12-07T02:05:37;3.10;99.90
25024;DHT22;13033;50.936;5.334;2023-12-07T02:08:07;3.20;99.90
25024;DHT22;13033;50.936;5.334;2023-12-07T02:10:33;3.20;99.90
25024;DHT22;13033;50.936;5.334;2023-12-07T02:12:59;3.20;99.90
25024;DHT22;13033;50.936;5.334;2023-12-07T02:15:25;3.10;99.90
25024;DHT22;13033;50.936;5.334;2023-12-07T02:20:39;3.10;99.90
25024;DHT22;13033;50.936;5.334;2023-12-07T02:23:08;2.90;99.90
25024;DHT22;13033;50.936;5.334;2023-12-07T02:25:53;3.00;99.90
25024;DHT22;13033;50.936;5.334;2023-12-07T02:28:19;3.00;99.90
25024;DHT22;13033;50.936;5.334;2023-12-07T02:30:45;3.00;99.90
25024;DHT22;13033;50.936;5.334;2023-12-07T02:33:11;2.90;99.90
25024;DHT22;13033;50.936;5.334;2023-12-07T02:35:38;3.10;99.90
25024;DHT22;13033;50.936;5.334;2023-12-07T02:38:06;3.00;99.90
25024;DHT22;13033;50.936;5.334;2023-12-07T02:40:33;3.10;99.90
25024;DHT22;13033;50.936;5.334;2023-12-07T02:43:00;3.10;99.90
25024;DHT22;13033;50.936;5.334;2023-12-07T02:45:27;2.90;99.90
25024;DHT22;13033;50.936;5.334;2023-12-07T02:47:53;2.80;99.90
25024;DHT22;13033;50.936;5.334;2023-12-07T02:50:19;2.80;99.90
25024;DHT22;13033;50.936;5.334;2023-12-07T02:52:45;2.90;99.90
25024;DHT22;13033;50.936;5.334;2023-12-07T02:55:11;3.00;99.90
25024;DHT22;13033;50.936;5.334;2023-12-07T02:57:37;3.10;99.90
25024;DHT22;13033;50.936;5.334;2023-12-07T03:00:05;3.10;99.90
25024;DHT22;13033;50.936;5.334;2023-12-07T03:02:35;3.10;99.90
25024;DHT22;13033;50.936;5.334;2023-12-07T03:05:01;2.90;99.90
25024;DHT22;13033;50.936;5.334;2023-12-07T03:07:26;3.10;99.90
25024;DHT22;13033;50.936;5.334;2023-12-07T03:09:52;3.10;99.90
25024;DHT22;13033;50.936;5.334;2023-12-07T03:12:18;3.10;99.90
25024;DHT22;13033;50.936;5.334;2023-12-07T03:14:43;3.20;99.90
25024;DHT22;13033;50.936;5.334;2023-12-07T03:17:09;3.10;99.90
25024;DHT22;13033;50.936;5.334;2023-12-07T03:19:39;3.20;99.90
25024;DHT22;13033;50.936;5.334;2023-12-07T03:22:04;3.00;99.90
25024;DHT22;13033;50.936;5.334;2023-12-07T03:24:35;2.90;99.90
25024;DHT22;13033;50.936;5.334;2023-12-07T03:27:01;3.00;99.90
25024;DHT22;13033;50.936;5.334;2023-12-07T03:29:28;3.00;99.90
25024;DHT22;13033;50.936;5.334;2023-12-07T03:31:53;3.00;99.90
25024;DHT22;13033;50.936;5.334;2023-12-07T03:34:19;3.10;99.90
25024;DHT22;13033;50.936;5.334;2023-12-07T03:36:46;2.90;99.90
25024;DHT22;13033;50.936;5.334;2023-12-07T03:39:13;2.90;99.90
25024;DHT22;13033;50.936;5.334;2023-12-07T03:41:38;2.90;99.90
25024;DHT22;13033;50.936;5.334;2023-12-07T03:44:04;3.00;99.90
25024;DHT22;13033;50.936;5.334;2023-12-07T03:46:30;3.00;99.90
25024;DHT22;13033;50.936;5.334;2023-12-07T03:48:55;3.20;99.90
25024;DHT22;13033;50.936;5.334;2023-12-07T03:51:21;3.10;99.90
25024;DHT22;13033;50.936;5.334;2023-12-07T03:53:47;3.20;99.90
25024;DHT22;13033;50.936;5.334;2023-12-07T03:56:25;3.20;99.90
25024;DHT22;13033;50.936;5.334;2023-12-07T03:58:51;3.30;99.90
25024;DHT22;13033;50.936;5.334;2023-12-07T04:01:17;3.30;99.90
25024;DHT22;13033;50.936;5.334;2023-12-07T04:03:43;3.20;99.90
25024;DHT22;13033;50.936;5.334;2023-12-07T04:06:08;3.40;99.90
25024;DHT22;13033;50.936;5.334;2023-12-07T04:08:34;3.20;99.90
25024;DHT22;13033;50.936;5.334;2023-12-07T04:11:00;3.10;99.90
25024;DHT22;13033;50.936;5.334;2023-12-07T04:13:26;3.20;99.90
25024;DHT22;13033;50.936;5.334;2023-12-07T04:15:51;3.20;99.90
25024;DHT22;13033;50.936;5.334;2023-12-07T04:18:17;3.20;99.90
25024;DHT22;13033;50.936;5.334;2023-12-07T04:20:43;3.20;99.90
25024;DHT22;13033;50.936;5.334;2023-12-07T04:23:08;3.30;99.90
25024;DHT22;13033;50.936;5.334;2023-12-07T04:25:34;3.50;99.90
25024;DHT22;13033;50.936;5.334;2023-12-07T04:28:00;3.40;99.90
25024;DHT22;13033;50.936;5.334;2023-12-07T04:30:25;3.50;99.90
25024;DHT22;13033;50.936;5.334;2023-12-07T04:32:51;3.50;99.90
25024;DHT22;13033;50.936;5.334;2023-12-07T04:35:17;3.60;99.90
25024;DHT22;13033;50.936;5.334;2023-12-07T04:37:42;3.40;99.90
25024;DHT22;13033;50.936;5.334;2023-12-07T04:40:08;3.30;99.90
25024;DHT22;13033;50.936;5.334;2023-12-07T04:42:36;3.30;99.90
25024;DHT22;13033;50.936;5.334;2023-12-07T04:45:02;3.30;99.90
25024;DHT22;13033;50.936;5.334;2023-12-07T04:47:28;3.30;99.90
25024;DHT22;13033;50.936;5.334;2023-12-07T04:49:53;3.50;99.90
25024;DHT22;13033;50.936;5.334;2023-12-07T04:52:19;3.30;99.90
25024;DHT22;13033;50.936;5.334;2023-12-07T04:54:45;3.10;99.90
25024;DHT22;13033;50.936;5.334;2023-12-07T04:57:10;3.00;99.90
25024;DHT22;13033;50.936;5.334;2023-12-07T04:59:36;3.00;99.90
25024;DHT22;13033;50.936;5.334;2023-12-07T05:02:01;3.00;99.90
25024;DHT22;13033;50.936;5.334;2023-12-07T05:04:27;3.20;99.90
25024;DHT22;13033;50.936;5.334;2023-12-07T05:06:53;3.10;99.90
25024;DHT22;13033;50.936;5.334;2023-12-07T05:09:19;3.00;99.90
25024;DHT22;13033;50.936;5.334;2023-12-07T05:11:44;2.80;99.90
25024;DHT22;13033;50.936;5.334;2023-12-07T05:14:16;3.00;99.90
25024;DHT22;13033;50.936;5.334;2023-12-07T05:16:41;2.90;99.90
25024;DHT22;13033;50.936;5.334;2023-12-07T05:19:07;2.80;99.90
25024;DHT22;13033;50.936;5.334;2023-12-07T05:21:33;3.00;99.90
25024;DHT22;13033;50.936;5.334;2023-12-07T05:23:58;2.90;99.90
25024;DHT22;13033;50.936;5.334;2023-12-07T05:26:24;3.10;99.90
25024;DHT22;13033;50.936;5.334;2023-12-07T05:28:50;3.10;99.90
25024;DHT22;13033;50.936;5.334;2023-12-07T05:31:17;3.20;99.90
25024;DHT22;13033;50.936;5.334;2023-12-07T05:33:43;3.30;99.90
25024;DHT22;13033;50.936;5.334;2023-12-07T05:36:09;3.20;99.90
25024;DHT22;13033;50.936;5.334;2023-12-07T05:38:35;3.30;99.90
25024;DHT22;13033;50.936;5.334;2023-12-07T05:41:00;3.30;99.90
25024;DHT22;13033;50.936;5.334;2023-12-07T05:43:26;3.20;99.90
25024;DHT22;13033;50.936;5.334;2023-12-07T05:45:52;3.20;99.90
25024;DHT22;13033;50.936;5.334;2023-12-07T05:48:17;3.30;99.90
25024;DHT22;13033;50.936;5.334;2023-12-07T05:50:43;3.40;99.90
25024;DHT22;13033;50.936;5.334;2023-12-07T05:53:09;3.50;99.90
25024;DHT22;13033;50.936;5.334;2023-12-07T05:55:34;3.60;99.90
25024;DHT22;13033;50.936;5.334;2023-12-07T05:58:00;3.60;99.90
25024;DHT22;13033;50.936;5.334;2023-12-07T06:00:26;3.70;99.90
25024;DHT22;13033;50.936;5.334;2023-12-07T06:02:52;3.70;99.90
25024;DHT22;13033;50.936;5.334;2023-12-07T06:05:17;3.70;99.90
25024;DHT22;13033;50.936;5.334;2023-12-07T06:07:43;3.70;99.90
25024;DHT22;13033;50.936;5.334;2023-12-07T06:10:09;3.70;99.90
25024;DHT22;13033;50.936;5.334;2023-12-07T06:12:35;3.50;99.90
25024;DHT22;13033;50.936;5.334;2023-12-07T06:15:00;3.60;99.90
25024;DHT22;13033;50.936;5.334;2023-12-07T06:17:26;3.60;99.90
25024;DHT22;13033;50.936;5.334;2023-12-07T06:19:52;3.60;99.90
25024;DHT22;13033;50.936;5.334;2023-12-07T06:22:18;3.40;99.90
25024;DHT22;13033;50.936;5.334;2023-12-07T06:24:44;3.40;99.90
25024;DHT22;13033;50.936;5.334;2023-12-07T06:27:10;3.30;99.90
25024;DHT22;13033;50.936;5.334;2023-12-07T06:29:36;3.20;99.90
25024;DHT22;13033;50.936;5.334;2023-12-07T06:32:01;3.10;99.90
25024;DHT22;13033;50.936;5.334;2023-12-07T06:34:27;3.20;99.90
25024;DHT22;13033;50.936;5.334;2023-12-07T06:36:56;3.20;99.90
25024;DHT22;13033;50.936;5.334;2023-12-07T06:39:21;3.30;99.90
25024;DHT22;13033;50.936;5.334;2023-12-07T06:41:47;3.40;99.90
25024;DHT22;13033;50.936;5.334;2023-12-07T06:44:12;3.40;99.90
25024;DHT22;13033;50.936;5.334;2023-12-07T06:46:38;3.20;99.90
25024;DHT22;13033;50.936;5.334;2023-12-07T06:49:05;3.00;99.90
25024;DHT22;13033;50.936;5.334;2023-12-07T06:51:30;3.20;99.90
25024;DHT22;13033;50.936;5.334;2023-12-07T06:53:56;3.20;99.90
25024;DHT22;13033;50.936;5.334;2023-12-07T06:56:21;3.20;99.90
25024;DHT22;13033;50.936;5.334;2023-12-07T06:58:54;3.30;99.90
25024;DHT22;13033;50.936;5.334;2023-12-07T07:01:19;3.50;99.90
25024;DHT22;13033;50.936;5.334;2023-12-07T07:03:45;3.60;99.90
25024;DHT22;13033;50.936;5.334;2023-12-07T07:06:10;3.70;99.90
25024;DHT22;13033;50.936;5.334;2023-12-07T07:08:36;3.50;99.90
25024;DHT22;13033;50.936;5.334;2023-12-07T07:11:08;3.50;99.90
25024;DHT22;13033;50.936;5.334;2023-12-07T07:13:36;3.40;99.90
25024;DHT22;13033;50.936;5.334;2023-12-07T07:16:02;3.40;99.90
25024;DHT22;13033;50.936;5.334;2023-12-07T07:18:28;3.40;99.90
25024;DHT22;13033;50.936;5.334;2023-12-07T07:20:55;3.30;99.90
25024;DHT22;13033;50.936;5.334;2023-12-07T07:23:20;3.30;99.90
25024;DHT22;13033;50.936;5.334;2023-12-07T07:25:46;3.40;99.90
25024;DHT22;13033;50.936;5.334;2023-12-07T07:28:11;3.50;99.90
25024;DHT22;13033;50.936;5.334;2023-12-07T07:30:37;3.50;99.90
25024;DHT22;13033;50.936;5.334;2023-12-07T07:33:04;3.40;99.90
25024;DHT22;13033;50.936;5.334;2023-12-07T07:35:29;3.50;99.90
25024;DHT22;13033;50.936;5.334;2023-12-07T07:37:55;3.40;99.90
25024;DHT22;13033;50.936;5.334;2023-12-07T07:40:21;3.50;99.90
25024;DHT22;13033;50.936;5.334;2023-12-07T07:42:47;3.50;99.90
25024;DHT22;13033;50.936;5.334;2023-12-07T07:45:12;3.50;99.90
25024;DHT22;13033;50.936;5.334;2023-12-07T07:47:38;3.50;99.90
25024;DHT22;13033;50.936;5.334;2023-12-07T07:50:05;3.70;99.90
25024;DHT22;13033;50.936;5.334;2023-12-07T07:52:32;3.60;99.90
25024;DHT22;13033;50.936;5.334;2023-12-07T07:55:00;3.60;99.90
25024;DHT22;13033;50.936;5.334;2023-12-07T07:57:26;3.50;99.90
25024;DHT22;13033;50.936;5.334;2023-12-07T07:59:51;3.30;99.90
25024;DHT22;13033;50.936;5.334;2023-12-07T08:02:17;3.30;99.90
25024;DHT22;13033;50.936;5.334;2023-12-07T08:04:43;3.20;99.90
25024;DHT22;13033;50.936;5.334;2023-12-07T08:07:08;3.20;99.90
25024;DHT22;13033;50.936;5.334;2023-12-07T08:09:36;3.20;99.90
25024;DHT22;13033;50.936;5.334;2023-12-07T08:12:02;3.10;99.90
25024;DHT22;13033;50.936;5.334;2023-12-07T08:14:28;3.00;99.90
25024;DHT22;13033;50.936;5.334;2023-12-07T08:16:53;2.90;99.90
25024;DHT22;13033;50.936;5.334;2023-12-07T08:19:19;2.80;99.90
25024;DHT22;13033;50.936;5.334;2023-12-07T08:21:45;2.80;99.90
25024;DHT22;13033;50.936;5.334;2023-12-07T08:24:10;2.80;99.90
25024;DHT22;13033;50.936;5.334;2023-12-07T08:26:38;3.10;99.90
25024;DHT22;13033;50.936;5.334;2023-12-07T08:29:04;3.10;99.90
25024;DHT22;13033;50.936;5.334;2023-12-07T08:31:30;3.10;99.90
25024;DHT22;13033;50.936;5.334;2023-12-07T08:33:56;3.00;99.90
25024;DHT22;13033;50.936;5.334;2023-12-07T08:36:22;3.00;99.90
25024;DHT22;13033;50.936;5.334;2023-12-07T08:38:48;3.00;99.90
25024;DHT22;13033;50.936;5.334;2023-12-07T08:41:14;3.10;99.90
25024;DHT22;13033;50.936;5.334;2023-12-07T08:43:39;3.20;99.90
25024;DHT22;13033;50.936;5.334;2023-12-07T08:46:05;3.30;99.90
25024;DHT22;13033;50.936;5.334;2023-12-07T08:48:33;3.30;99.90
25024;DHT22;13033;50.936;5.334;2023-12-07T08:50:59;3.30;99.90
25024;DHT22;13033;50.936;5.334;2023-12-07T08:53:25;3.20;99.90
25024;DHT22;13033;50.936;5.334;2023-12-07T08:55:52;3.30;99.90
25024;DHT22;13033;50.936;5.334;2023-12-07T08:58:18;3.30;99.90
25024;DHT22;13033;50.936;5.334;2023-12-07T09:00:44;3.40;99.90
25024;DHT22;13033;50.936;5.334;2023-12-07T09:03:09;3.30;99.90
25024;DHT22;13033;50.936;5.334;2023-12-07T09:05:35;3.50;99.90
25024;DHT22;13033;50.936;5.334;2023-12-07T09:08:01;3.60;99.90
25024;DHT22;13033;50.936;5.334;2023-12-07T09:10:27;3.70;99.90
25024;DHT22;13033;50.936;5.334;2023-12-07T09:12:53;3.60;99.90
25024;DHT22;13033;50.936;5.334;2023-12-07T09:15:19;3.40;99.90
25024;DHT22;13033;50.936;5.334;2023-12-07T09:17:44;3.50;99.90
25024;DHT22;13033;50.936;5.334;2023-12-07T09:20:11;3.60;99.90
25024;DHT22;13033;50.936;5.334;2023-12-07T09:22:43;3.60;99.90
25024;DHT22;13033;50.936;5.334;2023-12-07T09:25:09;3.60;99.90
25024;DHT22;13033;50.936;5.334;2023-12-07T09:27:36;3.60;99.90
25024;DHT22;13033;50.936;5.334;2023-12-07T09:30:06;3.70;99.90
25024;DHT22;13033;50.936;5.334;2023-12-07T09:32:33;3.80;99.90
25024;DHT22;13033;50.936;5.334;2023-12-07T09:35:06;3.90;99.90
25024;DHT22;13033;50.936;5.334;2023-12-07T09:37:34;3.80;99.90
25024;DHT22;13033;50.936;5.334;2023-12-07T09:40:00;3.70;99.90
25024;DHT22;13033;50.936;5.334;2023-12-07T09:42:26;3.90;99.90
25024;DHT22;13033;50.936;5.334;2023-12-07T09:44:53;3.90;99.90
25024;DHT22;13033;50.936;5.334;2023-12-07T09:47:20;3.70;99.90
25024;DHT22;13033;50.936;5.334;2023-12-07T09:49:46;3.70;99.90
25024;DHT22;13033;50.936;5.334;2023-12-07T09:52:12;3.80;99.90
25024;DHT22;13033;50.936;5.334;2023-12-07T09:54:42;3.80;99.90
25024;DHT22;13033;50.936;5.334;2023-12-07T09:57:09;4.00;99.90
25024;DHT22;13033;50.936;5.334;2023-12-07T09:59:38;4.10;99.90
25024;DHT22;13033;50.936;5.334;2023-12-07T10:02:06;4.20;99.90
25024;DHT22;13033;50.936;5.334;2023-12-07T10:04:33;4.30;99.90
25024;DHT22;13033;50.936;5.334;2023-12-07T10:06:58;4.20;99.90
25024;DHT22;13033;50.936;5.334;2023-12-07T10:09:26;4.40;99.90
25024;DHT22;13033;50.936;5.334;2023-12-07T10:12:05;4.40;99.90
25024;DHT22;13033;50.936;5.334;2023-12-07T10:14:31;4.50;99.90
25024;DHT22;13033;50.936;5.334;2023-12-07T10:16:57;4.70;99.90
25024;DHT22;13033;50.936;5.334;2023-12-07T10:19:23;4.70;99.90
25024;DHT22;13033;50.936;5.334;2023-12-07T10:21:51;4.80;99.90
25024;DHT22;13033;50.936;5.334;2023-12-07T10:24:23;4.90;99.90
25024;DHT22;13033;50.936;5.334;2023-12-07T10:26:51;4.70;99.90
25024;DHT22;13033;50.936;5.334;2023-12-07T10:29:20;4.90;99.90
25024;DHT22;13033;50.936;5.334;2023-12-07T10:31:46;4.90;99.90
25024;DHT22;13033;50.936;5.334;2023-12-07T10:34:17;5.00;99.90
25024;DHT22;13033;50.936;5.334;2023-12-07T10:36:46;5.00;99.90
25024;DHT22;13033;50.936;5.334;2023-12-07T10:39:12;5.10;99.90
25024;DHT22;13033;50.936;5.334;2023-12-07T10:41:38;5.10;99.90
25024;DHT22;13033;50.936;5.334;2023-12-07T10:44:07;5.10;99.90
25024;DHT22;13033;50.936;5.334;2023-12-07T10:46:42;5.10;99.90
25024;DHT22;13033;50.936;5.334;2023-12-07T10:49:15;5.20;99.90
25024;DHT22;13033;50.936;5.334;2023-12-07T10:51:45;5.20;99.90
25024;DHT22;13033;50.936;5.334;2023-12-07T10:54:16;5.30;99.90
25024;DHT22;13033;50.936;5.334;2023-12-07T10:56:46;5.40;99.90
25024;DHT22;13033;50.936;5.334;2023-12-07T10:59:12;5.60;99.90
25024;DHT22;13033;50.936;5.334;2023-12-07T11:01:42;5.30;99.90
25024;DHT22;13033;50.936;5.334;2023-12-07T11:04:12;5.30;99.90
25024;DHT22;13033;50.936;5.334;2023-12-07T11:06:40;5.20;99.90
25024;DHT22;13033;50.936;5.334;2023-12-07T11:09:13;5.20;99.90
25024;DHT22;13033;50.936;5.334;2023-12-07T11:11:47;5.30;99.90
25024;DHT22;13033;50.936;5.334;2023-12-07T11:14:15;5.30;99.90
25024;DHT22;13033;50.936;5.334;2023-12-07T11:16:43;5.40;99.90
25024;DHT22;13033;50.936;5.334;2023-12-07T11:19:43;5.50;99.90
25024;DHT22;13033;50.936;5.334;2023-12-07T11:22:13;5.50;99.90
25024;DHT22;13033;50.936;5.334;2023-12-07T11:24:59;5.70;99.90
25024;DHT22;13033;50.936;5.334;2023-12-07T11:27:32;5.70;99.90
25024;DHT22;13033;50.936;5.334;2023-12-07T11:30:01;5.80;99.90
25024;DHT22;13033;50.936;5.334;2023-12-07T11:32:28;5.90;99.90
25024;DHT22;13033;50.936;5.334;2023-12-07T11:34:54;6.00;99.90
25024;DHT22;13033;50.936;5.334;2023-12-07T11:37:20;6.00;99.90
25024;DHT22;13033;50.936;5.334;2023-12-07T11:39:46;5.90;99.90
25024;DHT22;13033;50.936;5.334;2023-12-07T11:42:17;5.80;99.90
25024;DHT22;13033;50.936;5.334;2023-12-07T11:44:47;5.70;99.90
25024;DHT22;13033;50.936;5.334;2023-12-07T11:47:18;5.70;99.90
25024;DHT22;13033;50.936;5.334;2023-12-07T11:49:45;6.00;99.90
25024;DHT22;13033;50.936;5.334;2023-12-07T11:54:45;5.80;99.90
25024;DHT22;13033;50.936;5.334;2023-12-07T11:57:12;5.80;99.90
25024;DHT22;13033;50.936;5.334;2023-12-07T11:59:38;5.80;99.90
25024;DHT22;13033;50.936;5.334;2023-12-07T12:02:04;5.90;99.90
25024;DHT22;13033;50.936;5.334;2023-12-07T12:04:30;6.00;99.90
25024;DHT22;13033;50.936;5.334;2023-12-07T12:06:55;6.20;99.90
25024;DHT22;13033;50.936;5.334;2023-12-07T12:09:23;6.20;99.90
25024;DHT22;13033;50.936;5.334;2023-12-07T12:11:49;6.20;99.90
25024;DHT22;13033;50.936;5.334;2023-12-07T12:14:16;6.20;99.90
25024;DHT22;13033;50.936;5.334;2023-12-07T12:16:46;6.20;99.90
25024;DHT22;13033;50.936;5.334;2023-12-07T12:19:12;6.20;99.90
25024;DHT22;13033;50.936;5.334;2023-12-07T12:21:40;6.40;99.90
25024;DHT22;13033;50.936;5.334;2023-12-07T12:24:10;6.40;99.90
25024;DHT22;13033;50.936;5.334;2023-12-07T12:26:39;6.30;99.90
25024;DHT22;13033;50.936;5.334;2023-12-07T12:29:06;6.30;99.90
25024;DHT22;13033;50.936;5.334;2023-12-07T12:31:32;6.30;99.90
25024;DHT22;13033;50.936;5.334;2023-12-07T12:34:01;6.40;99.90
25024;DHT22;13033;50.936;5.334;2023-12-07T12:36:27;6.30;99.90
25024;DHT22;13033;50.936;5.334;2023-12-07T12:38:54;6.40;99.90
25024;DHT22;13033;50.936;5.334;2023-12-07T12:41:21;6.40;99.90
25024;DHT22;13033;50.936;5.334;2023-12-07T12:43:48;6.20;99.90
25024;DHT22;13033;50.936;5.334;2023-12-07T12:46:15;6.30;99.90
25024;DHT22;13033;50.936;5.334;2023-12-07T12:48:57;6.20;99.90
25024;DHT22;13033;50.936;5.334;2023-12-07T12:51:25;6.20;99.90
25024;DHT22;13033;50.936;5.334;2023-12-07T12:53:51;6.20;99.90
25024;DHT22;13033;50.936;5.334;2023-12-07T12:56:19;6.20;99.90
25024;DHT22;13033;50.936;5.334;2023-12-07T12:58:46;6.30;99.90
25024;DHT22;13033;50.936;5.334;2023-12-07T13:01:11;6.10;99.90
25024;DHT22;13033;50.936;5.334;2023-12-07T13:03:37;6.00;99.90
25024;DHT22;13033;50.936;5.334;2023-12-07T13:06:03;6.00;99.90
25024;DHT22;13033;50.936;5.334;2023-12-07T13:08:29;6.00;99.90
25024;DHT22;13033;50.936;5.334;2023-12-07T13:10:58;6.00;99.90
25024;DHT22;13033;50.936;5.334;2023-12-07T13:13:24;6.20;99.90
25024;DHT22;13033;50.936;5.334;2023-12-07T13:15:50;6.40;99.90
25024;DHT22;13033;50.936;5.334;2023-12-07T13:18:16;6.40;99.90
25024;DHT22;13033;50.936;5.334;2023-12-07T13:20:43;6.50;99.90
25024;DHT22;13033;50.936;5.334;2023-12-07T13:23:09;6.40;99.90
25024;DHT22;13033;50.936;5.334;2023-12-07T13:25:35;6.50;99.90
25024;DHT22;13033;50.936;5.334;2023-12-07T13:28:00;6.40;99.90
25024;DHT22;13033;50.936;5.334;2023-12-07T13:30:26;6.60;99.90
25024;DHT22;13033;50.936;5.334;2023-12-07T13:32:55;6.70;99.90
25024;DHT22;13033;50.936;5.334;2023-12-07T13:35:20;6.90;99.90
25024;DHT22;13033;50.936;5.334;2023-12-07T13:37:47;6.70;99.90
25024;DHT22;13033;50.936;5.334;2023-12-07T13:40:13;6.60;99.90
25024;DHT22;13033;50.936;5.334;2023-12-07T13:42:40;6.70;99.90
25024;DHT22;13033;50.936;5.334;2023-12-07T13:45:06;6.60;99.90
25024;DHT22;13033;50.936;5.334;2023-12-07T13:47:34;6.60;99.90
25024;DHT22;13033;50.936;5.334;2023-12-07T13:50:03;6.60;99.90
25024;DHT22;13033;50.936;5.334;2023-12-07T13:52:29;6.60;99.90
25024;DHT22;13033;50.936;5.334;2023-12-07T13:54:55;6.60;99.90
25024;DHT22;13033;50.936;5.334;2023-12-07T13:57:22;6.60;99.90
25024;DHT22;13033;50.936;5.334;2023-12-07T13:59:51;6.60;99.90
25024;DHT22;13033;50.936;5.334;2023-12-07T14:02:17;6.60;99.90
25024;DHT22;13033;50.936;5.334;2023-12-07T14:04:43;6.70;99.90
25024;DHT22;13033;50.936;5.334;2023-12-07T14:09:36;6.70;99.90
25024;DHT22;13033;50.936;5.334;2023-12-07T14:12:03;6.70;99.90
25024;DHT22;13033;50.936;5.334;2023-12-07T14:14:29;6.70;99.90
25024;DHT22;13033;50.936;5.334;2023-12-07T14:16:56;6.60;99.90
25024;DHT22;13033;50.936;5.334;2023-12-07T14:19:22;6.70;99.90
25024;DHT22;13033;50.936;5.334;2023-12-07T14:21:47;6.70;99.90
25024;DHT22;13033;50.936;5.334;2023-12-07T14:24:13;6.80;99.90
25024;DHT22;13033;50.936;5.334;2023-12-07T14:26:42;6.80;99.90
25024;DHT22;13033;50.936;5.334;2023-12-07T14:29:08;6.70;99.90
25024;DHT22;13033;50.936;5.334;2023-12-07T14:31:35;6.70;99.90
25024;DHT22;13033;50.936;5.334;2023-12-07T14:34:03;6.60;99.90
25024;DHT22;13033;50.936;5.334;2023-12-07T14:36:29;6.60;99.90
25024;DHT22;13033;50.936;5.334;2023-12-07T14:38:55;6.70;99.90
25024;DHT22;13033;50.936;5.334;2023-12-07T14:41:20;6.70;99.90
25024;DHT22;13033;50.936;5.334;2023-12-07T14:43:48;6.80;99.90
25024;DHT22;13033;50.936;5.334;2023-12-07T14:46:14;6.70;99.90
25024;DHT22;13033;50.936;5.334;2023-12-07T14:48:40;6.60;99.90
25024;DHT22;13033;50.936;5.334;2023-12-07T14:51:05;6.60;99.90
25024;DHT22;13033;50.936;5.334;2023-12-07T14:53:32;6.60;99.90
25024;DHT22;13033;50.936;5.334;2023-12-07T14:55:59;6.50;99.90
25024;DHT22;13033;50.936;5.334;2023-12-07T14:58:25;6.50;99.90
25024;DHT22;13033;50.936;5.334;2023-12-07T15:00:51;6.40;99.90
25024;DHT22;13033;50.936;5.334;2023-12-07T15:03:17;6.40;99.90
25024;DHT22;13033;50.936;5.334;2023-12-07T15:05:44;6.40;99.90
25024;DHT22;13033;50.936;5.334;2023-12-07T15:08:10;6.30;99.90
25024;DHT22;13033;50.936;5.334;2023-12-07T15:10:37;6.30;99.90
25024;DHT22;13033;50.936;5.334;2023-12-07T15:13:03;6.20;99.90
25024;DHT22;13033;50.936;5.334;2023-12-07T15:15:30;6.10;99.90
25024;DHT22;13033;50.936;5.334;2023-12-07T15:17:56;6.00;99.90
25024;DHT22;13033;50.936;5.334;2023-12-07T15:20:22;6.10;99.90
25024;DHT22;13033;50.936;5.334;2023-12-07T15:22:48;6.10;99.90
25024;DHT22;13033;50.936;5.334;2023-12-07T15:25:13;6.10;99.90
25024;DHT22;13033;50.936;5.334;2023-12-07T15:27:39;6.00;99.90
25024;DHT22;13033;50.936;5.334;2023-12-07T15:30:07;6.00;99.90
25024;DHT22;13033;50.936;5.334;2023-12-07T15:32:35;6.00;99.90
25024;DHT22;13033;50.936;5.334;2023-12-07T15:35:01;5.90;99.90
25024;DHT22;13033;50.936;5.334;2023-12-07T15:37:27;5.80;99.90
25024;DHT22;13033;50.936;5.334;2023-12-07T15:39:53;5.80;99.90
25024;DHT22;13033;50.936;5.334;2023-12-07T15:42:18;5.80;99.90
25024;DHT22;13033;50.936;5.334;2023-12-07T15:44:44;5.80;99.90
25024;DHT22;13033;50.936;5.334;2023-12-07T15:47:10;5.80;99.90
25024;DHT22;13033;50.936;5.334;2023-12-07T15:49:36;5.80;99.90